sensor_id;sensor_type;location;lat;lon;timestamp;temperature;humidity
61094;DHT22;46976;52.942;6.810;2023-09-07T00:00:48;18.30;99.90
61094;DHT22;46976;52.942;6.810;2023-09-07T00:03:14;18.30;99.90
61094;DHT22;46976;52.942;6.810;2023-09-07T00:05:41;18.30;99.90
61094;DHT22;46976;52.942;6.810;2023-09-07T00:08:06;18.30;99.90
61094;DHT22;46976;52.942;6.810;2023-09-07T00:10:33;18.20;99.90
61094;DHT22;46976;52.942;6.810;2023-09-07T00:13:03;18.20;99.90
61094;DHT22;46976;52.942;6.810;2023-09-07T00:15:29;18.20;99.90
61094;DHT22;46976;52.942;6.810;2023-09-07T00:17:55;18.20;99.90
61094;DHT22;46976;52.942;6.810;2023-09-07T00:20:21;18.10;99.90
61094;DHT22;46976;52.942;6.810;2023-09-07T00:22:47;18.10;99.90
61094;DHT22;46976;52.942;6.810;2023-09-07T00:25:13;18.10;99.90
61094;DHT22;46976;52.942;6.810;2023-09-07T00:27:39;18.10;99.90
61094;DHT22;46976;52.942;6.810;2023-09-07T00:30:05;18.10;99.90
61094;DHT22;46976;52.942;6.810;2023-09-07T00:32:32;18.00;99.90
61094;DHT22;46976;52.942;6.810;2023-09-07T00:34:59;18.00;99.90
61094;DHT22;46976;52.942;6.810;2023-09-07T00:37:24;18.00;99.90
61094;DHT22;46976;52.942;6.810;2023-09-07T00:39:50;18.00;99.90
61094;DHT22;46976;52.942;6.810;2023-09-07T00:42:18;17.90;99.90
61094;DHT22;46976;52.942;6.810;2023-09-07T00:44:43;17.90;99.90
61094;DHT22;46976;52.942;6.810;2023-09-07T00:47:09;17.90;99.90
61094;DHT22;46976;52.942;6.810;2023-09-07T00:49:35;17.90;99.90
61094;DHT22;46976;52.942;6.810;2023-09-07T00:52:01;17.90;99.90
61094;DHT22;46976;52.942;6.810;2023-09-07T00:54:27;17.80;99.90
61094;DHT22;46976;52.942;6.810;2023-09-07T00:56:54;17.80;99.90
61094;DHT22;46976;52.942;6.810;2023-09-07T00:59:20;17.80;99.90
61094;DHT22;46976;52.942;6.810;2023-09-07T01:01:46;17.80;99.90
61094;DHT22;46976;52.942;6.810;2023-09-07T01:04:11;17.70;99.90
61094;DHT22;46976;52.942;6.810;2023-09-07T01:06:40;17.70;99.90
61094;DHT22;46976;52.942;6.810;2023-09-07T01:09:17;17.70;99.90
61094;DHT22;46976;52.942;6.810;2023-09-07T01:11:44;17.70;99.90
61094;DHT22;46976;52.942;6.810;2023-09-07T01:14:10;17.60;99.90
61094;DHT22;46976;52.942;6.810;2023-09-07T01:16:36;17.60;99.90
61094;DHT22;46976;52.942;6.810;2023-09-07T01:19:06;17.60;99.90
61094;DHT22;46976;52.942;6.810;2023-09-07T01:21:36;17.60;99.90
61094;DHT22;46976;52.942;6.810;2023-09-07T01:24:05;17.50;99.90
61094;DHT22;46976;52.942;6.810;2023-09-07T01:26:31;17.50;99.90
61094;DHT22;46976;52.942;6.810;2023-09-07T01:28:57;17.50;99.90
61094;DHT22;46976;52.942;6.810;2023-09-07T01:31:26;17.50;99.90
61094;DHT22;46976;52.942;6.810;2023-09-07T01:33:51;17.40;99.90
61094;DHT22;46976;52.942;6.810;2023-09-07T01:36:17;17.40;99.90
61094;DHT22;46976;52.942;6.810;2023-09-07T01:38:43;17.40;99.90
61094;DHT22;46976;52.942;6.810;2023-09-07T01:41:08;17.40;99.90
61094;DHT22;46976;52.942;6.810;2023-09-07T01:43:35;17.30;99.90
61094;DHT22;46976;52.942;6.810;2023-09-07T01:46:01;17.30;99.90
61094;DHT22;46976;52.942;6.810;2023-09-07T01:48:26;17.30;99.90
61094;DHT22;46976;52.942;6.810;2023-09-07T01:50:53;17.20;99.90
61094;DHT22;46976;52.942;6.810;2023-09-07T01:53:19;17.20;99.90
61094;DHT22;46976;52.942;6.810;2023-09-07T01:55:45;17.20;99.90
61094;DHT22;46976;52.942;6.810;2023-09-07T01:58:10;17.10;99.90
61094;DHT22;46976;52.942;6.810;2023-09-07T02:00:37;17.10;99.90
61094;DHT22;46976;52.942;6.810;2023-09-07T02:03:05;17.10;99.90
61094;DHT22;46976;52.942;6.810;2023-09-07T02:05:30;17.10;99.90
61094;DHT22;46976;52.942;6.810;2023-09-07T02:07:58;17.00;99.90
61094;DHT22;46976;52.942;6.810;2023-09-07T02:10:23;17.00;99.90
61094;DHT22;46976;52.942;6.810;2023-09-07T02:12:49;17.00;99.90
61094;DHT22;46976;52.942;6.810;2023-09-07T02:15:15;17.00;99.90
61094;DHT22;46976;52.942;6.810;2023-09-07T02:17:40;17.00;99.90
61094;DHT22;46976;52.942;6.810;2023-09-07T02:20:11;16.90;99.90
61094;DHT22;46976;52.942;6.810;2023-09-07T02:22:37;16.90;99.90
61094;DHT22;46976;52.942;6.810;2023-09-07T02:25:04;16.90;99.90
61094;DHT22;46976;52.942;6.810;2023-09-07T02:27:35;16.90;99.90
61094;DHT22;46976;52.942;6.810;2023-09-07T02:30:01;16.80;99.90
61094;DHT22;46976;52.942;6.810;2023-09-07T02:32:27;16.80;99.90
61094;DHT22;46976;52.942;6.810;2023-09-07T02:34:53;16.80;99.90
61094;DHT22;46976;52.942;6.810;2023-09-07T02:37:19;16.80;99.90
61094;DHT22;46976;52.942;6.810;2023-09-07T02:39:44;16.80;99.90
61094;DHT22;46976;52.942;6.810;2023-09-07T02:42:10;16.70;99.90
61094;DHT22;46976;52.942;6.810;2023-09-07T02:44:36;16.80;99.90
61094;DHT22;46976;52.942;6.810;2023-09-07T02:47:01;16.70;99.90
61094;DHT22;46976;52.942;6.810;2023-09-07T02:49:28;16.70;99.90
61094;DHT22;46976;52.942;6.810;2023-09-07T02:51:53;16.60;99.90
61094;DHT22;46976;52.942;6.810;2023-09-07T02:54:19;16.60;99.90
61094;DHT22;46976;52.942;6.810;2023-09-07T02:56:45;16.50;99.90
61094;DHT22;46976;52.942;6.810;2023-09-07T02:59:11;16.50;99.90
61094;DHT22;46976;52.942;6.810;2023-09-07T03:01:38;16.50;99.90
61094;DHT22;46976;52.942;6.810;2023-09-07T03:04:05;16.50;99.90
61094;DHT22;46976;52.942;6.810;2023-09-07T03:06:31;16.40;99.90
61094;DHT22;46976;52.942;6.810;2023-09-07T03:08:57;16.40;99.90
61094;DHT22;46976;52.942;6.810;2023-09-07T03:11:23;16.40;99.90
61094;DHT22;46976;52.942;6.810;2023-09-07T03:13:48;16.40;99.90
61094;DHT22;46976;52.942;6.810;2023-09-07T03:16:14;16.40;99.90
61094;DHT22;46976;52.942;6.810;2023-09-07T03:18:40;16.30;99.90
61094;DHT22;46976;52.942;6.810;2023-09-07T03:21:06;16.30;99.90
61094;DHT22;46976;52.942;6.810;2023-09-07T03:23:32;16.40;99.90
61094;DHT22;46976;52.942;6.810;2023-09-07T03:25:59;16.30;99.90
61094;DHT22;46976;52.942;6.810;2023-09-07T03:28:25;16.30;99.90
61094;DHT22;46976;52.942;6.810;2023-09-07T03:30:51;16.30;99.90
61094;DHT22;46976;52.942;6.810;2023-09-07T03:33:17;16.30;99.90
61094;DHT22;46976;52.942;6.810;2023-09-07T03:35:43;16.30;99.90
61094;DHT22;46976;52.942;6.810;2023-09-07T03:38:09;16.30;99.90
61094;DHT22;46976;52.942;6.810;2023-09-07T03:40:34;16.20;99.90
61094;DHT22;46976;52.942;6.810;2023-09-07T03:43:00;16.20;99.90
61094;DHT22;46976;52.942;6.810;2023-09-07T03:45:26;16.20;99.90
61094;DHT22;46976;52.942;6.810;2023-09-07T03:47:51;16.20;99.90
61094;DHT22;46976;52.942;6.810;2023-09-07T03:50:17;16.20;99.90
61094;DHT22;46976;52.942;6.810;2023-09-07T03:52:42;16.20;99.90
61094;DHT22;46976;52.942;6.810;2023-09-07T03:55:08;16.20;99.90
61094;DHT22;46976;52.942;6.810;2023-09-07T03:57:34;16.20;99.90
61094;DHT22;46976;52.942;6.810;2023-09-07T04:00:00;16.10;99.90
61094;DHT22;46976;52.942;6.810;2023-09-07T04:02:26;16.10;99.90
61094;DHT22;46976;52.942;6.810;2023-09-07T04:04:53;16.10;99.90
61094;DHT22;46976;52.942;6.810;2023-09-07T04:07:19;16.00;99.90
61094;DHT22;46976;52.942;6.810;2023-09-07T04:09:45;16.00;99.90
61094;DHT22;46976;52.942;6.810;2023-09-07T04:12:11;16.00;99.90
61094;DHT22;46976;52.942;6.810;2023-09-07T04:14:37;15.90;99.90
61094;DHT22;46976;52.942;6.810;2023-09-07T04:17:04;15.90;99.90
61094;DHT22;46976;52.942;6.810;2023-09-07T04:19:30;15.90;99.90
61094;DHT22;46976;52.942;6.810;2023-09-07T04:21:57;15.90;99.90
61094;DHT22;46976;52.942;6.810;2023-09-07T04:24:22;15.80;99.90
61094;DHT22;46976;52.942;6.810;2023-09-07T04:26:48;15.80;99.90
61094;DHT22;46976;52.942;6.810;2023-09-07T04:29:15;15.80;99.90
61094;DHT22;46976;52.942;6.810;2023-09-07T04:31:41;15.70;99.90
61094;DHT22;46976;52.942;6.810;2023-09-07T04:34:07;15.70;99.90
61094;DHT22;46976;52.942;6.810;2023-09-07T04:36:33;15.70;99.90
61094;DHT22;46976;52.942;6.810;2023-09-07T04:38:59;15.70;99.90
61094;DHT22;46976;52.942;6.810;2023-09-07T04:41:24;15.70;99.90
61094;DHT22;46976;52.942;6.810;2023-09-07T04:43:50;15.60;99.90
61094;DHT22;46976;52.942;6.810;2023-09-07T04:46:16;15.60;99.90
61094;DHT22;46976;52.942;6.810;2023-09-07T04:48:42;15.60;99.90
61094;DHT22;46976;52.942;6.810;2023-09-07T04:51:09;15.50;99.90
61094;DHT22;46976;52.942;6.810;2023-09-07T04:53:37;15.50;99.90
61094;DHT22;46976;52.942;6.810;2023-09-07T04:56:03;15.50;99.90
61094;DHT22;46976;52.942;6.810;2023-09-07T04:58:29;15.50;99.90
61094;DHT22;46976;52.942;6.810;2023-09-07T05:01:04;15.50;99.90
61094;DHT22;46976;52.942;6.810;2023-09-07T05:03:30;15.50;99.90
61094;DHT22;46976;52.942;6.810;2023-09-07T05:05:55;15.40;99.90
61094;DHT22;46976;52.942;6.810;2023-09-07T05:08:22;15.50;99.90
61094;DHT22;46976;52.942;6.810;2023-09-07T05:11:01;15.40;99.90
61094;DHT22;46976;52.942;6.810;2023-09-07T05:13:27;15.40;99.90
61094;DHT22;46976;52.942;6.810;2023-09-07T05:15:54;15.40;99.90
61094;DHT22;46976;52.942;6.810;2023-09-07T05:18:20;15.40;99.90
61094;DHT22;46976;52.942;6.810;2023-09-07T05:20:46;15.50;99.90
61094;DHT22;46976;52.942;6.810;2023-09-07T05:23:15;15.50;99.90
61094;DHT22;46976;52.942;6.810;2023-09-07T05:25:48;15.50;99.90
61094;DHT22;46976;52.942;6.810;2023-09-07T05:28:15;15.50;99.90
61094;DHT22;46976;52.942;6.810;2023-09-07T05:30:42;15.50;99.90
61094;DHT22;46976;52.942;6.810;2023-09-07T05:33:09;15.50;99.90
61094;DHT22;46976;52.942;6.810;2023-09-07T05:35:35;15.50;99.90
61094;DHT22;46976;52.942;6.810;2023-09-07T05:38:02;15.60;99.90
61094;DHT22;46976;52.942;6.810;2023-09-07T05:40:28;15.60;99.90
61094;DHT22;46976;52.942;6.810;2023-09-07T05:42:54;15.70;99.90
61094;DHT22;46976;52.942;6.810;2023-09-07T05:45:20;15.70;99.90
61094;DHT22;46976;52.942;6.810;2023-09-07T05:47:46;15.70;99.90
61094;DHT22;46976;52.942;6.810;2023-09-07T05:50:11;15.80;99.90
61094;DHT22;46976;52.942;6.810;2023-09-07T05:52:37;15.80;99.90
61094;DHT22;46976;52.942;6.810;2023-09-07T05:55:03;15.80;99.90
61094;DHT22;46976;52.942;6.810;2023-09-07T05:57:29;15.90;99.90
61094;DHT22;46976;52.942;6.810;2023-09-07T05:59:54;15.90;99.90
61094;DHT22;46976;52.942;6.810;2023-09-07T06:02:20;15.90;99.90
61094;DHT22;46976;52.942;6.810;2023-09-07T06:04:46;16.00;99.90
61094;DHT22;46976;52.942;6.810;2023-09-07T06:07:11;16.00;99.90
61094;DHT22;46976;52.942;6.810;2023-09-07T06:09:37;16.00;99.90
61094;DHT22;46976;52.942;6.810;2023-09-07T06:12:03;16.10;99.90
61094;DHT22;46976;52.942;6.810;2023-09-07T06:14:29;16.20;99.90
61094;DHT22;46976;52.942;6.810;2023-09-07T06:16:54;16.20;99.90
61094;DHT22;46976;52.942;6.810;2023-09-07T06:19:20;16.20;99.90
61094;DHT22;46976;52.942;6.810;2023-09-07T06:21:46;16.30;99.90
61094;DHT22;46976;52.942;6.810;2023-09-07T06:24:11;16.40;99.90
61094;DHT22;46976;52.942;6.810;2023-09-07T06:26:37;16.50;99.90
61094;DHT22;46976;52.942;6.810;2023-09-07T06:29:03;16.50;99.90
61094;DHT22;46976;52.942;6.810;2023-09-07T06:31:28;16.50;99.90
61094;DHT22;46976;52.942;6.810;2023-09-07T06:33:54;16.70;99.90
61094;DHT22;46976;52.942;6.810;2023-09-07T06:36:20;16.70;99.90
61094;DHT22;46976;52.942;6.810;2023-09-07T06:38:45;16.80;99.90
61094;DHT22;46976;52.942;6.810;2023-09-07T06:41:11;16.90;99.90
61094;DHT22;46976;52.942;6.810;2023-09-07T06:43:37;17.00;99.90
61094;DHT22;46976;52.942;6.810;2023-09-07T06:46:08;17.10;99.90
61094;DHT22;46976;52.942;6.810;2023-09-07T06:48:35;17.20;99.90
61094;DHT22;46976;52.942;6.810;2023-09-07T06:51:05;17.30;99.90
61094;DHT22;46976;52.942;6.810;2023-09-07T06:53:31;17.40;99.90
61094;DHT22;46976;52.942;6.810;2023-09-07T06:56:01;17.60;99.90
61094;DHT22;46976;52.942;6.810;2023-09-07T06:58:27;17.70;99.90
61094;DHT22;46976;52.942;6.810;2023-09-07T07:01:00;17.80;99.90
61094;DHT22;46976;52.942;6.810;2023-09-07T07:03:28;17.90;99.90
61094;DHT22;46976;52.942;6.810;2023-09-07T07:05:55;18.10;99.90
61094;DHT22;46976;52.942;6.810;2023-09-07T07:08:21;18.30;99.90
61094;DHT22;46976;52.942;6.810;2023-09-07T07:10:46;18.50;99.90
61094;DHT22;46976;52.942;6.810;2023-09-07T07:13:12;18.60;99.90
61094;DHT22;46976;52.942;6.810;2023-09-07T07:15:38;18.80;99.90
61094;DHT22;46976;52.942;6.810;2023-09-07T07:18:03;19.00;99.90
61094;DHT22;46976;52.942;6.810;2023-09-07T07:20:38;19.10;99.90
61094;DHT22;46976;52.942;6.810;2023-09-07T07:23:04;19.40;99.90
61094;DHT22;46976;52.942;6.810;2023-09-07T07:25:32;19.50;99.90
61094;DHT22;46976;52.942;6.810;2023-09-07T07:28:08;19.80;99.90
61094;DHT22;46976;52.942;6.810;2023-09-07T07:30:35;19.90;99.90
61094;DHT22;46976;52.942;6.810;2023-09-07T07:33:02;20.20;99.90
61094;DHT22;46976;52.942;6.810;2023-09-07T07:35:32;20.40;99.90
61094;DHT22;46976;52.942;6.810;2023-09-07T07:37:58;20.60;99.90
61094;DHT22;46976;52.942;6.810;2023-09-07T07:40:24;20.80;99.90
61094;DHT22;46976;52.942;6.810;2023-09-07T07:42:52;20.90;99.90
61094;DHT22;46976;52.942;6.810;2023-09-07T07:45:18;21.20;99.90
61094;DHT22;46976;52.942;6.810;2023-09-07T07:47:48;21.40;99.90
61094;DHT22;46976;52.942;6.810;2023-09-07T07:50:14;21.70;99.90
61094;DHT22;46976;52.942;6.810;2023-09-07T07:52:40;21.90;99.90
61094;DHT22;46976;52.942;6.810;2023-09-07T07:55:06;22.10;99.90
61094;DHT22;46976;52.942;6.810;2023-09-07T07:57:32;22.30;99.90
61094;DHT22;46976;52.942;6.810;2023-09-07T07:59:58;22.50;99.90
61094;DHT22;46976;52.942;6.810;2023-09-07T08:02:23;22.60;99.90
61094;DHT22;46976;52.942;6.810;2023-09-07T08:04:49;22.80;99.90
61094;DHT22;46976;52.942;6.810;2023-09-07T08:07:15;23.00;99.90
61094;DHT22;46976;52.942;6.810;2023-09-07T08:09:40;23.10;99.90
61094;DHT22;46976;52.942;6.810;2023-09-07T08:12:06;23.30;99.90
61094;DHT22;46976;52.942;6.810;2023-09-07T08:14:32;23.40;99.90
61094;DHT22;46976;52.942;6.810;2023-09-07T08:16:58;23.60;99.90
61094;DHT22;46976;52.942;6.810;2023-09-07T08:19:24;23.70;99.90
61094;DHT22;46976;52.942;6.810;2023-09-07T08:21:50;23.90;99.90
61094;DHT22;46976;52.942;6.810;2023-09-07T08:24:16;24.20;99.90
61094;DHT22;46976;52.942;6.810;2023-09-07T08:26:43;24.30;99.90
61094;DHT22;46976;52.942;6.810;2023-09-07T08:29:09;24.40;99.90
61094;DHT22;46976;52.942;6.810;2023-09-07T08:31:37;24.50;99.90
61094;DHT22;46976;52.942;6.810;2023-09-07T08:34:05;24.60;99.90
61094;DHT22;46976;52.942;6.810;2023-09-07T08:36:31;24.80;99.90
61094;DHT22;46976;52.942;6.810;2023-09-07T08:39:06;24.80;99.90
61094;DHT22;46976;52.942;6.810;2023-09-07T08:41:37;25.00;99.90
61094;DHT22;46976;52.942;6.810;2023-09-07T08:44:08;25.20;97.10
61094;DHT22;46976;52.942;6.810;2023-09-07T08:46:35;25.30;96.90
61094;DHT22;46976;52.942;6.810;2023-09-07T08:49:01;25.40;91.30
61094;DHT22;46976;52.942;6.810;2023-09-07T08:51:28;25.40;90.60
61094;DHT22;46976;52.942;6.810;2023-09-07T08:53:54;25.60;90.00
61094;DHT22;46976;52.942;6.810;2023-09-07T08:56:22;25.70;86.40
61094;DHT22;46976;52.942;6.810;2023-09-07T08:58:48;25.90;82.50
61094;DHT22;46976;52.942;6.810;2023-09-07T09:01:17;26.00;80.90
61094;DHT22;46976;52.942;6.810;2023-09-07T09:03:43;26.10;79.40
61094;DHT22;46976;52.942;6.810;2023-09-07T09:06:10;26.20;77.20
61094;DHT22;46976;52.942;6.810;2023-09-07T09:11:12;26.30;67.10
61094;DHT22;46976;52.942;6.810;2023-09-07T09:13:40;26.40;72.20
61094;DHT22;46976;52.942;6.810;2023-09-07T09:16:06;26.50;71.30
61094;DHT22;46976;52.942;6.810;2023-09-07T09:18:32;26.60;59.20
61094;DHT22;46976;52.942;6.810;2023-09-07T09:20:58;26.70;67.00
61094;DHT22;46976;52.942;6.810;2023-09-07T09:23:29;26.80;60.20
61094;DHT22;46976;52.942;6.810;2023-09-07T09:25:56;26.80;59.80
61094;DHT22;46976;52.942;6.810;2023-09-07T09:28:21;26.90;61.70
61094;DHT22;46976;52.942;6.810;2023-09-07T09:30:48;27.00;56.90
61094;DHT22;46976;52.942;6.810;2023-09-07T09:33:14;27.00;59.10
61094;DHT22;46976;52.942;6.810;2023-09-07T09:35:42;27.20;55.90
61094;DHT22;46976;52.942;6.810;2023-09-07T09:38:08;27.40;57.40
61094;DHT22;46976;52.942;6.810;2023-09-07T09:40:35;27.50;54.00
61094;DHT22;46976;52.942;6.810;2023-09-07T09:43:05;27.60;54.50
61094;DHT22;46976;52.942;6.810;2023-09-07T09:45:32;27.80;54.10
61094;DHT22;46976;52.942;6.810;2023-09-07T09:47:58;28.00;49.90
61094;DHT22;46976;52.942;6.810;2023-09-07T09:50:27;28.10;47.50
61094;DHT22;46976;52.942;6.810;2023-09-07T09:52:54;28.20;44.50
61094;DHT22;46976;52.942;6.810;2023-09-07T09:55:20;28.30;47.40
61094;DHT22;46976;52.942;6.810;2023-09-07T09:57:47;28.30;42.90
61094;DHT22;46976;52.942;6.810;2023-09-07T10:00:13;28.40;42.00
61094;DHT22;46976;52.942;6.810;2023-09-07T10:03:11;28.40;38.80
61094;DHT22;46976;52.942;6.810;2023-09-07T10:05:38;28.50;39.20
61094;DHT22;46976;52.942;6.810;2023-09-07T10:08:13;28.60;39.30
61094;DHT22;46976;52.942;6.810;2023-09-07T10:10:40;28.70;37.50
61094;DHT22;46976;52.942;6.810;2023-09-07T10:13:06;28.70;36.60
61094;DHT22;46976;52.942;6.810;2023-09-07T10:15:32;28.80;36.50
61094;DHT22;46976;52.942;6.810;2023-09-07T10:18:14;28.90;36.10
61094;DHT22;46976;52.942;6.810;2023-09-07T10:20:58;29.00;34.90
61094;DHT22;46976;52.942;6.810;2023-09-07T10:23:40;29.10;32.20
61094;DHT22;46976;52.942;6.810;2023-09-07T10:26:15;29.20;33.60
61094;DHT22;46976;52.942;6.810;2023-09-07T10:28:43;29.30;31.20
61094;DHT22;46976;52.942;6.810;2023-09-07T10:31:19;29.30;32.90
61094;DHT22;46976;52.942;6.810;2023-09-07T10:33:46;29.40;29.90
61094;DHT22;46976;52.942;6.810;2023-09-07T10:36:22;29.50;29.50
61094;DHT22;46976;52.942;6.810;2023-09-07T10:38:48;29.50;29.10
61094;DHT22;46976;52.942;6.810;2023-09-07T10:41:14;29.60;29.00
61094;DHT22;46976;52.942;6.810;2023-09-07T10:43:48;29.70;28.60
61094;DHT22;46976;52.942;6.810;2023-09-07T10:46:14;29.80;27.70
61094;DHT22;46976;52.942;6.810;2023-09-07T10:48:40;29.90;28.50
61094;DHT22;46976;52.942;6.810;2023-09-07T10:51:06;30.00;26.40
61094;DHT22;46976;52.942;6.810;2023-09-07T10:53:32;30.00;25.60
61094;DHT22;46976;52.942;6.810;2023-09-07T10:56:07;30.00;23.30
61094;DHT22;46976;52.942;6.810;2023-09-07T10:58:35;29.90;21.50
61094;DHT22;46976;52.942;6.810;2023-09-07T11:01:01;29.80;23.40
61094;DHT22;46976;52.942;6.810;2023-09-07T11:03:29;29.90;23.20
61094;DHT22;46976;52.942;6.810;2023-09-07T11:06:01;29.90;21.60
61094;DHT22;46976;52.942;6.810;2023-09-07T11:08:31;29.90;22.00
61094;DHT22;46976;52.942;6.810;2023-09-07T11:10:58;29.90;20.60
61094;DHT22;46976;52.942;6.810;2023-09-07T11:13:25;30.00;21.20
61094;DHT22;46976;52.942;6.810;2023-09-07T11:15:53;30.00;20.20
61094;DHT22;46976;52.942;6.810;2023-09-07T11:18:20;30.00;20.70
61094;DHT22;46976;52.942;6.810;2023-09-07T11:20:50;30.10;20.20
61094;DHT22;46976;52.942;6.810;2023-09-07T11:23:18;30.20;20.90
61094;DHT22;46976;52.942;6.810;2023-09-07T11:25:44;30.20;21.30
61094;DHT22;46976;52.942;6.810;2023-09-07T11:28:10;30.30;20.40
61094;DHT22;46976;52.942;6.810;2023-09-07T11:30:52;30.30;19.40
61094;DHT22;46976;52.942;6.810;2023-09-07T11:33:21;30.30;19.10
61094;DHT22;46976;52.942;6.810;2023-09-07T11:35:47;30.30;20.00
61094;DHT22;46976;52.942;6.810;2023-09-07T11:38:13;30.30;20.90
61094;DHT22;46976;52.942;6.810;2023-09-07T11:40:39;30.40;20.50
61094;DHT22;46976;52.942;6.810;2023-09-07T11:43:08;30.50;20.70
61094;DHT22;46976;52.942;6.810;2023-09-07T11:45:33;30.60;21.10
61094;DHT22;46976;52.942;6.810;2023-09-07T11:47:59;30.60;20.90
61094;DHT22;46976;52.942;6.810;2023-09-07T11:50:25;30.70;20.30
61094;DHT22;46976;52.942;6.810;2023-09-07T11:52:51;30.80;19.90
61094;DHT22;46976;52.942;6.810;2023-09-07T11:55:17;30.90;19.50
61094;DHT22;46976;52.942;6.810;2023-09-07T11:57:42;31.00;17.70
61094;DHT22;46976;52.942;6.810;2023-09-07T12:00:08;31.00;17.20
61094;DHT22;46976;52.942;6.810;2023-09-07T12:02:39;31.00;17.00
61094;DHT22;46976;52.942;6.810;2023-09-07T12:05:05;31.00;17.30
61094;DHT22;46976;52.942;6.810;2023-09-07T12:07:33;31.00;18.70
61094;DHT22;46976;52.942;6.810;2023-09-07T12:09:59;31.10;18.60
61094;DHT22;46976;52.942;6.810;2023-09-07T12:12:25;31.20;18.60
61094;DHT22;46976;52.942;6.810;2023-09-07T12:14:51;31.30;19.40
61094;DHT22;46976;52.942;6.810;2023-09-07T12:17:17;31.50;19.80
61094;DHT22;46976;52.942;6.810;2023-09-07T12:19:44;31.60;20.70
61094;DHT22;46976;52.942;6.810;2023-09-07T12:22:11;31.70;20.80
61094;DHT22;46976;52.942;6.810;2023-09-07T12:24:37;31.80;19.40
61094;DHT22;46976;52.942;6.810;2023-09-07T12:27:03;31.90;19.30
61094;DHT22;46976;52.942;6.810;2023-09-07T12:29:29;32.10;19.70
61094;DHT22;46976;52.942;6.810;2023-09-07T12:31:55;32.20;19.30
61094;DHT22;46976;52.942;6.810;2023-09-07T12:34:20;32.30;19.30
61094;DHT22;46976;52.942;6.810;2023-09-07T12:36:46;32.40;19.00
61094;DHT22;46976;52.942;6.810;2023-09-07T12:39:11;32.50;18.40
61094;DHT22;46976;52.942;6.810;2023-09-07T12:41:38;32.60;18.20
61094;DHT22;46976;52.942;6.810;2023-09-07T12:44:04;32.80;18.40
61094;DHT22;46976;52.942;6.810;2023-09-07T12:46:31;33.30;18.20
61094;DHT22;46976;52.942;6.810;2023-09-07T12:48:57;33.90;17.20
61094;DHT22;46976;52.942;6.810;2023-09-07T12:51:23;34.50;16.40
61094;DHT22;46976;52.942;6.810;2023-09-07T12:53:48;35.20;15.50
61094;DHT22;46976;52.942;6.810;2023-09-07T12:56:14;36.00;14.50
61094;DHT22;46976;52.942;6.810;2023-09-07T12:58:41;36.60;13.20
61094;DHT22;46976;52.942;6.810;2023-09-07T13:01:08;37.00;11.60
61094;DHT22;46976;52.942;6.810;2023-09-07T13:03:38;37.20;11.10
61094;DHT22;46976;52.942;6.810;2023-09-07T13:06:04;37.70;11.10
61094;DHT22;46976;52.942;6.810;2023-09-07T13:08:30;37.90;10.60
61094;DHT22;46976;52.942;6.810;2023-09-07T13:10:56;38.00;10.00
61094;DHT22;46976;52.942;6.810;2023-09-07T13:13:23;38.40;10.10
61094;DHT22;46976;52.942;6.810;2023-09-07T13:15:51;38.70;9.20
61094;DHT22;46976;52.942;6.810;2023-09-07T13:18:17;39.10;9.10
61094;DHT22;46976;52.942;6.810;2023-09-07T13:20:42;39.50;8.60
61094;DHT22;46976;52.942;6.810;2023-09-07T13:23:08;39.80;8.40
61094;DHT22;46976;52.942;6.810;2023-09-07T13:25:34;40.00;8.10
61094;DHT22;46976;52.942;6.810;2023-09-07T13:27:59;40.10;7.70
61094;DHT22;46976;52.942;6.810;2023-09-07T13:30:25;40.20;7.00
61094;DHT22;46976;52.942;6.810;2023-09-07T13:32:51;40.30;6.90
61094;DHT22;46976;52.942;6.810;2023-09-07T13:35:16;40.60;6.90
61094;DHT22;46976;52.942;6.810;2023-09-07T13:37:42;40.30;6.00
61094;DHT22;46976;52.942;6.810;2023-09-07T13:40:08;40.50;6.00
61094;DHT22;46976;52.942;6.810;2023-09-07T13:42:34;40.80;6.10
61094;DHT22;46976;52.942;6.810;2023-09-07T13:45:00;41.30;5.80
61094;DHT22;46976;52.942;6.810;2023-09-07T13:47:26;41.90;5.80
61094;DHT22;46976;52.942;6.810;2023-09-07T13:49:51;42.40;5.70
61094;DHT22;46976;52.942;6.810;2023-09-07T13:52:17;42.80;5.50
61094;DHT22;46976;52.942;6.810;2023-09-07T13:54:42;43.00;5.60
61094;DHT22;46976;52.942;6.810;2023-09-07T13:57:08;43.20;3.90
61094;DHT22;46976;52.942;6.810;2023-09-07T13:59:34;43.40;3.90
61094;DHT22;46976;52.942;6.810;2023-09-07T14:02:01;43.60;3.80
61094;DHT22;46976;52.942;6.810;2023-09-07T14:04:27;43.80;2.70
61094;DHT22;46976;52.942;6.810;2023-09-07T14:06:53;44.00;2.70
61094;DHT22;46976;52.942;6.810;2023-09-07T14:09:18;44.20;2.70
61094;DHT22;46976;52.942;6.810;2023-09-07T14:11:44;44.40;2.80
61094;DHT22;46976;52.942;6.810;2023-09-07T14:14:13;44.50;2.70
61094;DHT22;46976;52.942;6.810;2023-09-07T14:16:38;44.70;2.60
61094;DHT22;46976;52.942;6.810;2023-09-07T14:19:04;44.70;2.30
61094;DHT22;46976;52.942;6.810;2023-09-07T14:21:29;44.70;2.30
61094;DHT22;46976;52.942;6.810;2023-09-07T14:23:55;44.60;2.60
61094;DHT22;46976;52.942;6.810;2023-09-07T14:26:21;44.60;2.20
61094;DHT22;46976;52.942;6.810;2023-09-07T14:28:46;44.70;2.20
61094;DHT22;46976;52.942;6.810;2023-09-07T14:31:12;44.50;2.00
61094;DHT22;46976;52.942;6.810;2023-09-07T14:33:37;44.50;2.30
61094;DHT22;46976;52.942;6.810;2023-09-07T14:36:05;44.20;1.90
61094;DHT22;46976;52.942;6.810;2023-09-07T14:38:31;43.90;2.10
61094;DHT22;46976;52.942;6.810;2023-09-07T14:41:00;43.30;2.20
61094;DHT22;46976;52.942;6.810;2023-09-07T14:43:26;42.20;2.80
61094;DHT22;46976;52.942;6.810;2023-09-07T14:45:51;40.80;3.40
61094;DHT22;46976;52.942;6.810;2023-09-07T14:48:17;39.40;4.40
61094;DHT22;46976;52.942;6.810;2023-09-07T14:50:43;38.30;5.20
61094;DHT22;46976;52.942;6.810;2023-09-07T14:53:09;37.30;5.90
61094;DHT22;46976;52.942;6.810;2023-09-07T14:55:34;36.40;6.90
61094;DHT22;46976;52.942;6.810;2023-09-07T14:58:00;35.70;8.10
61094;DHT22;46976;52.942;6.810;2023-09-07T15:00:25;35.10;8.50
61094;DHT22;46976;52.942;6.810;2023-09-07T15:02:53;34.50;8.90
61094;DHT22;46976;52.942;6.810;2023-09-07T15:05:18;33.90;9.60
61094;DHT22;46976;52.942;6.810;2023-09-07T15:07:44;33.50;9.60
61094;DHT22;46976;52.942;6.810;2023-09-07T15:10:10;33.00;10.00
61094;DHT22;46976;52.942;6.810;2023-09-07T15:12:36;32.70;11.00
61094;DHT22;46976;52.942;6.810;2023-09-07T15:15:01;32.40;11.60
61094;DHT22;46976;52.942;6.810;2023-09-07T15:17:28;32.10;12.00
61094;DHT22;46976;52.942;6.810;2023-09-07T15:19:53;31.90;12.40
61094;DHT22;46976;52.942;6.810;2023-09-07T15:22:19;31.60;12.80
61094;DHT22;46976;52.942;6.810;2023-09-07T15:24:45;31.40;13.20
61094;DHT22;46976;52.942;6.810;2023-09-07T15:27:11;31.20;13.90
61094;DHT22;46976;52.942;6.810;2023-09-07T15:29:38;31.00;14.10
61094;DHT22;46976;52.942;6.810;2023-09-07T15:32:04;30.80;14.20